NFFNPHLI

Guest
Details From NFFN - Nadi Intl
To PHLI - Lihue - Kauai
Flight Number -
Tags Generated
Created
Modified
Stats Distance 2,749 nm / 5,090 km
Max Altitude 0 ft / 0 m
Waypoints 3
Social Downloads 1
Likes 0
Share VATSIM

Download

Looking for another format? Having issues loading an existing format? Contact us
Advertisement - Login to hide

Notes

Generated

Route

NFFN LIH08 PHLI

ID Type Via Altitude Latitude Longitude Leg Dist Tot Dist Heading (true) Name
O NFFN APT - 0 ft / 0 m -17.75352˚ 177.43591˚ - 0 nm - -
LIH08 FIX - 0 ft / 0 m 21.94302˚ -159.38017˚ 2746 nm 2746 nm 31° / 32° -
O PHLI APT - 0 ft / 0 m 21.97291˚ -159.34882˚ 2 nm 2748 nm 44° / 44° -

Altitude Profile

Advertisement - Login to hide

Weather


0- 5 10 15 20 25 30 35+ Temperature / ° C

Clouds and Precipitation
Forecast for 2018-05-21 18:00 UTC. Updated 4 hours ago

Ground ~20,000 ft ~40,000 ft Winds

NFFN

Details ICAO NFFN (NAN)
Name Nadi Intl
Region Fiji and Tonga
Timezone Pacific/Fiji (UTC+12.0)
Stats Elevation 59 ft / 18 m (AMSL)
Location -17.758366° 177.442147°
Runways 2
Magnetic Variation 12.418° E

METAR

NFFN 212000Z 00000KT 9999 FEW030 24/21 Q1014 NOSIG

Decode

TAF

TAF NFFN 211105Z 2112/2212 VRB03KT 9999 FEW030 BECMG 2121/2123 28010KT BECMG 2204/2206 08005KT

Decode

Departure Runways

ID Width Length Bearing (true) Bearing (mag) Surface Threshold Offset Overrun Length
02 151 ft / 46 m 10,529 ft / 3,209 m 37.50° 25.08° Asphalt 0 ft / 0 m 0 ft / 0 m
09 151 ft / 46 m 6,989 ft / 2,130 m 104.20° 91.78° Asphalt 0 ft / 0 m 95 ft / 29 m
20 151 ft / 46 m 10,529 ft / 3,209 m 217.50° 205.08° Asphalt 0 ft / 0 m 0 ft / 0 m
27 151 ft / 46 m 6,989 ft / 2,130 m 284.20° 271.78° Asphalt 0 ft / 0 m 0 ft / 0 m

PHLI

Details ICAO PHLI (LIH)
Name Lihue - Kauai
Region USA (Hawaii)
Timezone Pacific/Honolulu (UTC-10.0)
Stats Elevation 153 ft / 47 m (AMSL)
Location 21.975984° -159.338958°
Runways 2
Magnetic Variation 9.443° E

METAR

PHLI 211953Z 04013KT 10SM SCT023 BKN029 BKN039 26/21 A3014

Decode

TAF

PHLI 211929Z 2119/2218 05013KT P6SM VCSH SCT020 BKN030 FM212000 06013G20KT P6SM SCT025 BKN040 FM220600 05011KT P6SM FEW025 SCT040

Decode

Destination Runways

ID Width Length Bearing (true) Bearing (mag) Surface Threshold Offset Overrun Length
03 151 ft / 46 m 6,510 ft / 1,984 m 44.84° 35.40° Asphalt 0 ft / 0 m 230 ft / 70 m
17 151 ft / 46 m 6,529 ft / 1,990 m 180.01° 170.57° Asphalt 0 ft / 0 m 200 ft / 61 m
21 151 ft / 46 m 6,510 ft / 1,984 m 224.84° 215.40° Asphalt 203 ft / 62 m 92 ft / 28 m
35 151 ft / 46 m 6,529 ft / 1,990 m 0.01° 350.57° Asphalt 0 ft / 0 m 213 ft / 65 m

Approach Navaids

Runway Type Ident Frequency Range Bearing (true) Bearing (mag) Slope Elevation
35 Localiser ILIH 110.90 MHz 18 nm / 33 km 0.01° 350.57° - 92 ft / 28 m (AMSL)
35 Glidescope ILIH 110.90 MHz 10 nm / 19 km 0.01° 350.57° 3.00° 92 ft / 28 m (AMSL)
35 DME ILIH 110.90 MHz 18 nm / 33 km - - - 92 ft / 28 m (AMSL)